createdAt,value
2023-12-14T00:00:41.098Z,8.93
2023-12-14T00:03:12.627Z,10.02
2023-12-14T00:05:42.853Z,10.10
2023-12-14T00:08:16.627Z,12.05
2023-12-14T00:10:49.843Z,11.98
2023-12-14T00:13:19.023Z,12.00
2023-12-14T00:15:50.467Z,11.15
2023-12-14T00:18:22.518Z,10.07
2023-12-14T00:20:51.749Z,9.00
2023-12-14T00:23:27.428Z,8.68
2023-12-14T00:25:54.488Z,8.45
2023-12-14T00:28:26.980Z,8.48
2023-12-14T00:31:00.481Z,8.60
2023-12-14T00:33:35.543Z,8.88
2023-12-14T00:36:05.046Z,8.65
2023-12-14T00:38:33.449Z,9.30
2023-12-14T00:41:02.677Z,9.48
2023-12-14T00:43:38.250Z,10.95
2023-12-14T00:46:09.014Z,11.00
2023-12-14T00:48:38.383Z,10.05
2023-12-14T00:51:11.026Z,13.73
2023-12-14T00:53:43.249Z,14.43
2023-12-14T00:58:42.879Z,13.30
2023-12-14T01:01:14.527Z,17.38
2023-12-14T01:03:45.817Z,17.70
2023-12-14T01:06:20.810Z,17.83
2023-12-14T01:08:50.761Z,17.23
2023-12-14T01:11:22.750Z,18.60
2023-12-14T01:13:54.085Z,19.67
2023-12-14T01:16:32.418Z,20.48
2023-12-14T01:19:06.790Z,20.08
2023-12-14T01:21:33.839Z,19.80
2023-12-14T01:24:03.641Z,19.70
2023-12-14T01:26:38.087Z,18.17
2023-12-14T01:29:04.938Z,19.25
2023-12-14T01:31:36.928Z,18.10
2023-12-14T01:34:11.557Z,18.90
2023-12-14T01:36:44.686Z,19.55
2023-12-14T01:39:11.581Z,18.77
2023-12-14T01:41:44.043Z,18.33
2023-12-14T01:44:10.734Z,18.45
2023-12-14T01:46:45.360Z,17.40
2023-12-14T01:49:12.123Z,19.05
2023-12-14T01:51:47.113Z,16.92
2023-12-14T01:54:18.981Z,19.83
2023-12-14T01:56:47.436Z,16.10
2023-12-14T01:59:18.861Z,18.13
2023-12-14T02:01:49.828Z,18.30
2023-12-14T02:04:19.338Z,16.13
2023-12-14T02:06:51.915Z,17.70
2023-12-14T02:09:23.910Z,19.77
2023-12-14T02:11:58.993Z,16.80
2023-12-14T02:14:30.841Z,17.92
2023-12-14T02:17:03.312Z,17.15
2023-12-14T02:19:35.281Z,19.38
2023-12-14T02:22:04.294Z,15.88
2023-12-14T02:24:38.699Z,16.63
2023-12-14T02:27:09.910Z,15.55
2023-12-14T02:29:41.308Z,15.63
2023-12-14T02:32:14.945Z,16.17
2023-12-14T02:34:47.167Z,15.73
2023-12-14T02:37:20.676Z,18.08
2023-12-14T02:39:58.643Z,16.88
2023-12-14T02:42:25.563Z,15.82
2023-12-14T02:44:55.118Z,15.25
2023-12-14T02:47:24.834Z,14.63
2023-12-14T02:49:51.728Z,14.90
2023-12-14T02:52:26.778Z,15.80
2023-12-14T02:54:53.645Z,13.32
2023-12-14T02:57:27.911Z,15.60
2023-12-14T02:59:59.874Z,13.80
2023-12-14T03:02:34.864Z,13.93
2023-12-14T03:05:09.282Z,15.40
2023-12-14T03:07:42.889Z,16.58
2023-12-14T03:10:12.748Z,13.27
2023-12-14T03:12:42.350Z,15.32
2023-12-14T03:15:20.139Z,14.25
2023-12-14T03:17:49.671Z,13.85
2023-12-14T03:20:19.249Z,15.10
2023-12-14T03:22:51.628Z,14.65
2023-12-14T03:25:29.495Z,13.63
2023-12-14T03:27:58.037Z,13.80
2023-12-14T03:30:24.759Z,15.82
2023-12-14T03:32:54.228Z,13.90
2023-12-14T03:35:21.112Z,12.65
2023-12-14T03:37:48.171Z,13.43
2023-12-14T03:40:20.677Z,13.80
2023-12-14T03:42:51.357Z,14.15
2023-12-14T03:45:31.349Z,13.25
2023-12-14T03:48:06.801Z,13.20
2023-12-14T03:50:36.175Z,14.63
2023-12-14T03:53:06.761Z,13.25
2023-12-14T03:55:36.801Z,13.95
2023-12-14T03:58:12.323Z,12.90
2023-12-14T04:00:44.360Z,12.45
2023-12-14T04:03:16.322Z,13.02
2023-12-14T04:05:45.423Z,15.65
2023-12-14T04:08:19.939Z,13.00
2023-12-14T04:10:48.285Z,14.50
2023-12-14T04:13:22.635Z,14.05
2023-12-14T04:15:58.850Z,11.93
2023-12-14T04:18:35.024Z,13.25
2023-12-14T04:21:11.576Z,12.00
2023-12-14T04:23:43.492Z,11.45
2023-12-14T04:26:16.126Z,10.45
2023-12-14T04:28:47.506Z,11.20
2023-12-14T04:31:14.312Z,11.60
2023-12-14T04:33:43.901Z,11.00
2023-12-14T04:36:19.382Z,9.95
2023-12-14T04:38:48.350Z,11.77
2023-12-14T04:41:17.973Z,11.32
2023-12-14T04:43:49.966Z,10.32
2023-12-14T04:46:22.397Z,10.10
2023-12-14T04:48:52.487Z,10.60
2023-12-14T04:51:19.133Z,10.32
2023-12-14T04:53:45.862Z,10.20
2023-12-14T04:56:12.863Z,10.65
2023-12-14T04:58:44.752Z,11.25
2023-12-14T05:01:15.297Z,11.18
2023-12-14T05:03:43.588Z,10.80
2023-12-14T05:06:18.534Z,12.07
2023-12-14T05:08:50.454Z,10.77
2023-12-14T05:11:21.862Z,9.98
2023-12-14T05:13:59.408Z,8.48
2023-12-14T05:16:27.936Z,11.68
2023-12-14T05:18:57.831Z,12.27
2023-12-14T05:21:27.376Z,12.02
2023-12-14T05:23:54.726Z,11.57
2023-12-14T05:26:26.667Z,13.45
2023-12-14T05:29:01.865Z,13.57
2023-12-14T05:31:34.822Z,12.73
2023-12-14T05:34:06.258Z,12.90
2023-12-14T05:36:37.893Z,13.13
2023-12-14T05:39:10.416Z,12.98
2023-12-14T05:41:46.170Z,12.75
2023-12-14T05:44:18.082Z,13.75
2023-12-14T05:46:50.207Z,13.30
2023-12-14T05:49:22.134Z,13.90
2023-12-14T05:51:54.655Z,12.82
2023-12-14T05:54:24.158Z,13.18
2023-12-14T05:56:53.497Z,13.50
2023-12-14T05:59:28.435Z,12.30
2023-12-14T06:02:06.569Z,12.82
2023-12-14T06:04:38.515Z,12.73
2023-12-14T06:07:07.811Z,12.77
2023-12-14T06:09:36.183Z,12.18
2023-12-14T06:12:14.685Z,11.98
2023-12-14T06:14:46.177Z,12.25
2023-12-14T06:17:15.399Z,12.77
2023-12-14T06:19:47.426Z,12.25
2023-12-14T06:22:19.799Z,12.43
2023-12-14T06:24:48.740Z,12.27
2023-12-14T06:27:15.366Z,12.45
2023-12-14T06:29:44.550Z,12.10
2023-12-14T06:32:19.561Z,12.18
2023-12-14T06:34:54.799Z,11.90
2023-12-14T06:37:24.326Z,12.10
2023-12-14T06:39:59.184Z,12.88
2023-12-14T06:42:32.112Z,13.50
2023-12-14T06:45:06.900Z,13.10
2023-12-14T06:47:33.653Z,12.93
2023-12-14T06:50:11.116Z,13.57
2023-12-14T06:52:43.928Z,13.88
2023-12-14T06:55:13.994Z,14.05
2023-12-14T06:57:43.912Z,13.57
2023-12-14T07:00:17.956Z,14.60
2023-12-14T07:02:45.041Z,13.68
2023-12-14T07:05:15.143Z,14.45
2023-12-14T07:07:50.129Z,14.80
2023-12-14T07:10:20.126Z,15.48
2023-12-14T07:12:52.113Z,14.65
2023-12-14T07:15:23.984Z,15.63
2023-12-14T07:17:56.063Z,14.10
2023-12-14T07:20:27.862Z,15.40
2023-12-14T07:23:02.888Z,15.60
2023-12-14T07:25:36.986Z,14.05
2023-12-14T07:28:06.428Z,15.05
2023-12-14T07:30:35.429Z,15.35
2023-12-14T07:33:13.037Z,16.05
2023-12-14T07:35:42.010Z,15.13
2023-12-14T07:38:11.370Z,15.27
2023-12-14T07:40:47.982Z,15.65
2023-12-14T07:43:17.826Z,14.52
2023-12-14T07:45:48.931Z,15.93
2023-12-14T07:48:18.455Z,15.40
2023-12-14T07:50:49.659Z,16.38
2023-12-14T07:53:24.924Z,16.15
2023-12-14T07:56:05.987Z,16.90
2023-12-14T07:58:37.939Z,15.45
2023-12-14T08:01:10.352Z,15.68
2023-12-14T08:03:45.889Z,16.60
2023-12-14T08:06:13.707Z,16.88
2023-12-14T08:08:45.761Z,16.35
2023-12-14T08:11:17.734Z,15.65
2023-12-14T08:13:50.221Z,15.50
2023-12-14T08:16:18.679Z,14.65
2023-12-14T08:18:53.111Z,17.23
2023-12-14T08:21:21.858Z,15.40
2023-12-14T08:23:48.596Z,16.38
2023-12-14T08:26:23.272Z,15.25
2023-12-14T08:28:58.643Z,16.33
2023-12-14T08:31:26.020Z,15.82
2023-12-14T08:34:01.006Z,15.77
2023-12-14T08:36:31.268Z,15.38
2023-12-14T08:38:58.103Z,14.98
2023-12-14T08:41:29.655Z,15.00
2023-12-14T08:44:02.101Z,15.45
2023-12-14T08:46:42.371Z,16.00
2023-12-14T08:49:14.383Z,15.45
2023-12-14T08:51:46.844Z,15.45
2023-12-14T08:54:16.396Z,16.98
2023-12-14T08:56:49.151Z,16.00
2023-12-14T08:59:20.598Z,15.35
2023-12-14T09:01:47.627Z,15.85
2023-12-14T09:04:16.964Z,16.00
2023-12-14T09:06:48.920Z,16.63
2023-12-14T09:09:20.370Z,15.38
2023-12-14T09:11:54.290Z,16.02
2023-12-14T09:14:25.085Z,17.25
2023-12-14T09:17:00.064Z,15.95
2023-12-14T09:19:34.997Z,16.55
2023-12-14T09:22:07.288Z,16.67
2023-12-14T09:24:38.792Z,16.85
2023-12-14T09:27:07.880Z,18.00
2023-12-14T09:29:39.438Z,17.00
2023-12-14T09:32:09.175Z,15.82
2023-12-14T09:34:38.798Z,18.20
2023-12-14T09:37:06.228Z,17.08
2023-12-14T09:39:37.127Z,17.23
2023-12-14T09:42:05.527Z,17.73
2023-12-14T09:44:38.854Z,16.13
2023-12-14T09:47:10.778Z,17.73
2023-12-14T09:49:46.546Z,17.33
2023-12-14T09:52:16.051Z,17.83
2023-12-14T09:54:51.742Z,17.30
2023-12-14T09:57:26.904Z,18.23
2023-12-14T09:59:59.814Z,17.58
2023-12-14T10:02:32.669Z,18.63
2023-12-14T10:05:09.898Z,18.02
2023-12-14T10:07:45.036Z,18.10
2023-12-14T10:10:14.483Z,16.45
2023-12-14T10:13:01.394Z,18.48
2023-12-14T10:15:44.274Z,16.60
2023-12-14T10:18:11.217Z,17.90
2023-12-14T10:20:41.891Z,17.73
2023-12-14T10:23:14.774Z,17.88
2023-12-14T10:25:49.435Z,17.42
2023-12-14T10:28:19.034Z,16.98
2023-12-14T10:30:51.352Z,17.25
2023-12-14T10:33:23.124Z,17.70
2023-12-14T10:35:58.337Z,17.92
2023-12-14T10:38:33.215Z,16.90
2023-12-14T10:41:02.721Z,17.58
2023-12-14T10:43:47.896Z,17.02
2023-12-14T10:46:19.873Z,17.52
2023-12-14T10:48:51.171Z,17.10
2023-12-14T10:51:23.124Z,18.98
2023-12-14T10:53:53.226Z,16.55
2023-12-14T10:56:22.883Z,17.33
2023-12-14T10:59:01.592Z,17.15
2023-12-14T11:01:29.127Z,16.63
2023-12-14T11:04:00.346Z,16.00
2023-12-14T11:06:33.997Z,16.67
2023-12-14T11:09:09.046Z,18.08
2023-12-14T11:12:08.387Z,15.82
2023-12-14T11:14:42.712Z,15.48
2023-12-14T11:17:11.272Z,17.55
2023-12-14T11:19:44.431Z,16.95
2023-12-14T11:22:28.637Z,15.77
2023-12-14T11:24:59.239Z,16.23
2023-12-14T11:27:35.595Z,16.55
2023-12-14T11:30:05.565Z,14.48
2023-12-14T11:32:32.298Z,15.68
2023-12-14T11:35:04.028Z,16.95
2023-12-14T11:37:36.490Z,16.55
2023-12-14T11:40:12.355Z,15.05
2023-12-14T11:42:39.368Z,16.90
2023-12-14T11:45:06.513Z,16.25
2023-12-14T11:47:36.238Z,16.27
2023-12-14T11:50:03.191Z,17.20
2023-12-14T11:52:32.418Z,14.65
2023-12-14T11:55:01.810Z,17.60
2023-12-14T11:57:31.763Z,16.58
2023-12-14T12:00:09.432Z,16.17
2023-12-14T12:02:43.199Z,17.23
2023-12-14T12:05:14.607Z,15.93
2023-12-14T12:07:45.127Z,16.85
2023-12-14T12:10:14.558Z,15.73
2023-12-14T12:12:46.550Z,16.35
2023-12-14T12:15:14.391Z,17.02
2023-12-14T12:17:42.177Z,16.33
2023-12-14T12:20:09.858Z,16.20
2023-12-14T12:22:43.862Z,15.98
2023-12-14T12:25:15.746Z,17.30
2023-12-14T12:30:20.778Z,17.38
2023-12-14T12:32:47.557Z,15.95
2023-12-14T12:35:16.795Z,17.38
2023-12-14T12:37:45.988Z,16.67
2023-12-14T12:40:12.967Z,17.55
2023-12-14T12:42:42.286Z,17.58
2023-12-14T12:45:12.117Z,17.23
2023-12-14T12:47:41.558Z,16.92
2023-12-14T12:50:08.965Z,17.00
2023-12-14T12:52:35.671Z,15.98
2023-12-14T12:55:07.493Z,17.38
2023-12-14T12:57:39.013Z,17.90
2023-12-14T13:00:08.967Z,18.52
2023-12-14T13:02:39.090Z,16.40
2023-12-14T13:05:11.524Z,18.52
2023-12-14T13:07:40.197Z,18.25
2023-12-14T13:10:20.683Z,17.00
2023-12-14T13:12:57.973Z,16.45
2023-12-14T13:15:30.147Z,17.02
2023-12-14T13:18:00.102Z,16.42
2023-12-14T13:20:29.700Z,15.98
2023-12-14T13:22:56.389Z,16.25
2023-12-14T13:25:27.676Z,17.70
2023-12-14T13:27:57.940Z,16.88
2023-12-14T13:30:25.403Z,15.38
2023-12-14T13:33:00.710Z,15.70
2023-12-14T13:35:30.032Z,15.32
2023-12-14T13:37:59.635Z,16.20
2023-12-14T13:40:31.528Z,15.52
2023-12-14T13:43:07.113Z,15.50
2023-12-14T13:45:35.433Z,15.82
2023-12-14T13:48:05.024Z,15.63
2023-12-14T13:50:34.455Z,16.23
2023-12-14T13:53:03.973Z,14.93
2023-12-14T13:55:36.304Z,15.75
2023-12-14T13:58:03.544Z,15.70
2023-12-14T14:00:34.009Z,15.15
2023-12-14T14:03:00.747Z,15.48
2023-12-14T14:05:30.522Z,14.82
2023-12-14T14:08:06.919Z,15.10
2023-12-14T14:10:36.494Z,16.40
2023-12-14T14:13:05.389Z,14.98
2023-12-14T14:15:32.123Z,15.85
2023-12-14T14:17:59.123Z,16.40
2023-12-14T14:20:28.143Z,15.55
2023-12-14T14:22:58.461Z,16.80
2023-12-14T14:25:30.814Z,15.13
2023-12-14T14:27:59.776Z,17.98
2023-12-14T14:30:29.022Z,16.92
2023-12-14T14:32:55.811Z,16.63
2023-12-14T14:35:25.364Z,17.63
2023-12-14T14:37:53.372Z,17.08
2023-12-14T14:40:24.934Z,17.00
2023-12-14T14:42:59.763Z,17.35
2023-12-14T14:45:31.708Z,17.00
2023-12-14T14:48:07.576Z,16.30
2023-12-14T14:50:37.264Z,17.05
2023-12-14T14:53:09.337Z,17.70
2023-12-14T14:58:08.070Z,15.70
2023-12-14T15:00:40.127Z,17.10
2023-12-14T15:03:12.210Z,17.35
2023-12-14T15:05:42.183Z,15.50
2023-12-14T15:08:08.920Z,19.00
2023-12-14T15:10:38.705Z,17.50
2023-12-14T15:13:08.217Z,18.02
2023-12-14T15:15:43.324Z,17.27
2023-12-14T15:18:18.424Z,16.55
2023-12-14T15:20:45.448Z,17.98
2023-12-14T15:23:17.529Z,17.50
2023-12-14T15:28:16.204Z,15.90
2023-12-14T15:30:43.273Z,17.40
2023-12-14T15:33:16.310Z,16.23
2023-12-14T15:35:46.507Z,18.27
2023-12-14T15:38:13.237Z,16.38
2023-12-14T15:40:42.669Z,17.27
2023-12-14T15:43:10.302Z,16.92
2023-12-14T15:45:39.400Z,17.15
2023-12-14T15:48:07.668Z,16.77
2023-12-14T15:50:40.517Z,17.48
2023-12-14T15:53:14.567Z,18.10
2023-12-14T15:55:43.924Z,17.98
2023-12-14T15:58:21.928Z,17.63
2023-12-14T16:00:50.983Z,17.60
2023-12-14T16:03:20.344Z,18.63
2023-12-14T16:05:47.148Z,16.10
2023-12-14T16:08:17.167Z,16.88
2023-12-14T16:10:48.728Z,16.85
2023-12-14T16:13:18.708Z,18.02
2023-12-14T16:15:47.843Z,18.20
2023-12-14T16:18:14.875Z,18.67
2023-12-14T16:20:43.977Z,18.85
2023-12-14T16:23:13.055Z,19.38
2023-12-14T16:25:39.762Z,19.67
2023-12-14T16:28:11.245Z,18.98
2023-12-14T16:30:38.041Z,19.60
2023-12-14T16:33:04.991Z,19.40
2023-12-14T16:35:34.869Z,20.77
2023-12-14T16:38:02.387Z,19.77
2023-12-14T16:40:29.177Z,20.02
2023-12-14T16:42:55.910Z,19.67
2023-12-14T16:45:24.889Z,20.38
2023-12-14T16:47:53.823Z,19.70
2023-12-14T16:50:25.779Z,19.15
2023-12-14T16:52:56.146Z,19.40
2023-12-14T16:55:25.139Z,19.13
2023-12-14T16:57:58.943Z,19.27
2023-12-14T17:00:30.502Z,21.23
2023-12-14T17:03:01.690Z,21.15
2023-12-14T17:05:30.752Z,20.15
2023-12-14T17:08:02.758Z,18.27
2023-12-14T17:10:34.668Z,19.50
2023-12-14T17:13:04.112Z,19.25
2023-12-14T17:15:32.987Z,18.60
2023-12-14T17:18:05.536Z,18.80
2023-12-14T17:20:37.108Z,20.55
2023-12-14T17:23:05.160Z,20.05
2023-12-14T17:25:36.861Z,20.30
2023-12-14T17:28:05.760Z,19.63
2023-12-14T17:30:33.044Z,19.75
2023-12-14T17:33:06.388Z,20.27
2023-12-14T17:35:33.293Z,20.27
2023-12-14T17:38:06.394Z,19.92
2023-12-14T17:40:36.079Z,19.38
2023-12-14T17:43:05.267Z,19.27
2023-12-14T17:45:36.725Z,20.40
2023-12-14T17:48:03.573Z,20.02
2023-12-14T17:50:30.307Z,19.88
2023-12-14T17:53:00.174Z,18.52
2023-12-14T17:55:32.237Z,19.02
2023-12-14T17:58:04.721Z,18.88
2023-12-14T18:00:34.022Z,19.08
2023-12-14T18:03:06.414Z,20.40
2023-12-14T18:05:44.662Z,19.00
2023-12-14T18:08:14.172Z,19.05
2023-12-14T18:10:42.130Z,17.45
2023-12-14T18:13:08.786Z,19.00
2023-12-14T18:15:38.278Z,18.83
2023-12-14T18:18:09.762Z,18.48
2023-12-14T18:20:39.190Z,17.70
2023-12-14T18:23:06.709Z,17.73
2023-12-14T18:25:33.458Z,17.27
2023-12-14T18:28:04.633Z,18.40
2023-12-14T18:30:31.562Z,17.97
2023-12-14T18:32:58.339Z,17.75
2023-12-14T18:35:30.473Z,17.05
2023-12-14T18:40:34.022Z,16.50
2023-12-14T18:43:03.518Z,16.42
2023-12-14T18:45:30.369Z,15.40
2023-12-14T18:48:00.830Z,14.13
2023-12-14T18:50:29.984Z,14.00
2023-12-14T18:53:02.328Z,15.82
2023-12-14T18:55:32.258Z,14.95
2023-12-14T18:58:01.732Z,16.00
2023-12-14T19:00:31.171Z,15.30
2023-12-14T19:03:03.593Z,15.95
2023-12-14T19:05:36.683Z,15.20
2023-12-14T19:08:09.142Z,15.10
2023-12-14T19:10:35.813Z,14.10
2023-12-14T19:13:06.123Z,15.20
2023-12-14T19:15:42.974Z,15.32
2023-12-14T19:18:17.815Z,15.55
2023-12-14T19:20:44.350Z,14.35
2023-12-14T19:23:13.447Z,15.40
2023-12-14T19:25:44.125Z,15.45
2023-12-14T19:28:14.077Z,16.77
2023-12-14T19:30:40.923Z,16.88
2023-12-14T19:33:10.816Z,15.23
2023-12-14T19:35:37.572Z,15.90
2023-12-14T19:38:06.672Z,16.33
2023-12-14T19:40:36.251Z,16.08
2023-12-14T19:43:05.376Z,14.45
2023-12-14T19:45:32.106Z,14.73
2023-12-14T19:48:02.064Z,15.23
2023-12-14T19:50:31.172Z,15.43
2023-12-14T19:52:58.034Z,14.70
2023-12-14T19:55:27.430Z,14.98
2023-12-14T19:57:54.019Z,16.27
2023-12-14T20:00:20.698Z,15.85
2023-12-14T20:02:47.447Z,15.93
2023-12-14T20:05:14.456Z,15.20
2023-12-14T20:07:44.949Z,15.43
2023-12-14T20:10:11.775Z,16.55
2023-12-14T20:12:41.367Z,15.48
2023-12-14T20:15:15.157Z,15.50
2023-12-14T20:17:46.821Z,15.20
2023-12-14T20:20:21.539Z,16.10
2023-12-14T20:22:48.278Z,15.68
2023-12-14T20:25:17.277Z,16.17
2023-12-14T20:27:47.012Z,15.93
2023-12-14T20:30:14.116Z,16.65
2023-12-14T20:32:41.851Z,18.08
2023-12-14T20:35:15.833Z,16.17
2023-12-14T20:37:45.322Z,16.33
2023-12-14T20:40:18.071Z,17.15
2023-12-14T20:42:47.194Z,17.05
2023-12-14T20:45:14.095Z,15.93
2023-12-14T20:47:43.683Z,16.30
2023-12-14T20:50:10.862Z,16.83
2023-12-14T20:52:41.046Z,15.63
2023-12-14T20:55:08.072Z,15.55
2023-12-14T20:57:40.059Z,15.65
2023-12-14T21:00:08.150Z,15.65
2023-12-14T21:02:34.769Z,17.00
2023-12-14T21:05:01.524Z,16.20
2023-12-14T21:07:38.904Z,17.85
2023-12-14T21:10:08.747Z,19.13
2023-12-14T21:12:43.603Z,15.43
2023-12-14T21:15:15.650Z,16.42
2023-12-14T21:17:47.808Z,16.63
2023-12-14T21:22:54.710Z,15.60
2023-12-14T21:25:39.145Z,17.45
2023-12-14T21:28:11.337Z,16.58
2023-12-14T21:30:40.901Z,17.70
2023-12-14T21:33:09.837Z,16.80
2023-12-14T21:35:39.253Z,17.85
2023-12-14T21:38:14.282Z,17.08
2023-12-14T21:40:46.182Z,18.30
2023-12-14T21:43:21.174Z,15.40
2023-12-14T21:45:56.735Z,17.38
2023-12-14T21:48:34.672Z,16.98
2023-12-14T21:51:07.070Z,17.33
2023-12-14T21:53:40.319Z,16.77
2023-12-14T21:56:10.954Z,17.30
2023-12-14T21:58:43.433Z,17.35
2023-12-14T22:01:18.637Z,17.08
2023-12-14T22:03:54.578Z,16.73
2023-12-14T22:06:24.207Z,17.67
2023-12-14T22:09:00.731Z,17.15
2023-12-14T22:11:34.364Z,17.85
2023-12-14T22:14:04.583Z,18.23
2023-12-14T22:16:47.708Z,19.45
2023-12-14T22:19:20.708Z,18.63
2023-12-14T22:21:50.108Z,17.67
2023-12-14T22:24:22.568Z,18.65
2023-12-14T22:26:55.023Z,19.42
2023-12-14T22:29:27.579Z,19.50
2023-12-14T22:32:05.799Z,19.95
2023-12-14T22:34:35.316Z,19.15
2023-12-14T22:37:04.843Z,20.42
2023-12-14T22:39:34.789Z,20.30
2023-12-14T22:42:02.695Z,18.60
2023-12-14T22:44:34.716Z,22.40
2023-12-14T22:47:04.424Z,20.20
2023-12-14T22:49:33.071Z,18.83
2023-12-14T22:52:03.818Z,18.95
2023-12-14T22:54:30.696Z,18.25
2023-12-14T22:57:05.625Z,18.15
2023-12-14T22:59:39.400Z,19.10
2023-12-14T23:02:08.158Z,21.38
2023-12-14T23:04:40.673Z,18.98
2023-12-14T23:07:10.577Z,19.80
2023-12-14T23:09:42.168Z,19.30
2023-12-14T23:12:17.200Z,18.50
2023-12-14T23:14:49.404Z,18.20
2023-12-14T23:19:55.436Z,17.75
2023-12-14T23:22:27.812Z,17.20
2023-12-14T23:25:00.201Z,18.73
2023-12-14T23:27:35.957Z,17.88
2023-12-14T23:30:02.975Z,16.65
2023-12-14T23:32:35.351Z,18.67
2023-12-14T23:35:07.640Z,19.25
2023-12-14T23:37:38.726Z,18.13
2023-12-14T23:40:06.016Z,19.07
2023-12-14T23:42:32.832Z,19.80
2023-12-14T23:45:05.053Z,18.10
2023-12-14T23:47:35.100Z,19.45
2023-12-14T23:50:02.231Z,19.50
2023-12-14T23:52:37.763Z,17.63
2023-12-14T23:55:13.001Z,19.17
2023-12-14T23:57:48.363Z,19.67
